createdAt,value
2023-03-15T00:04:01.760Z,98290.53
2023-03-15T00:09:05.330Z,98295.94
2023-03-15T00:14:09.913Z,98309.88
2023-03-15T00:19:13.188Z,98315.25
2023-03-15T00:24:16.132Z,98322.03
2023-03-15T00:29:21.634Z,98316.72
2023-03-15T00:34:26.617Z,98312.66
2023-03-15T00:39:29.993Z,98336.97
2023-03-15T00:44:34.223Z,98343.97
2023-03-15T00:49:37.373Z,98341.47
2023-03-15T00:54:41.812Z,98343.53
2023-03-15T00:59:46.134Z,98354.09
2023-03-15T01:04:49.275Z,98365.75
2023-03-15T01:09:52.342Z,98364.78
2023-03-15T01:14:56.681Z,98362.25
2023-03-15T01:20:00.355Z,98371.75
2023-03-15T01:25:03.296Z,98378.06
2023-03-15T01:30:08.866Z,98378.56
2023-03-15T01:35:11.975Z,98380.91
2023-03-15T01:40:15.589Z,98384.88
2023-03-15T01:46:24.549Z,98386.69
2023-03-15T01:51:36.444Z,98386.22
2023-03-15T01:56:42.937Z,98393.84
2023-03-15T02:01:47.027Z,98384.41
2023-03-15T02:06:51.986Z,98388.44
2023-03-15T02:11:57.740Z,98384.38
2023-03-15T02:17:00.651Z,98396.16
2023-03-15T02:22:18.051Z,98384.38
2023-03-15T02:27:28.800Z,98394.09
2023-03-15T02:32:32.147Z,98403.03
2023-03-15T02:37:35.108Z,98404.06
2023-03-15T02:42:39.629Z,98414.16
2023-03-15T02:47:42.658Z,98416.63
2023-03-15T02:52:45.899Z,98417.59
2023-03-15T02:57:50.653Z,98422.59
2023-03-15T03:02:53.845Z,98422.31
2023-03-15T03:07:56.794Z,98434.84
2023-03-15T03:13:01.293Z,98440.59
2023-03-15T03:18:13.279Z,98454.16
2023-03-15T03:23:16.207Z,98463.81
2023-03-15T03:28:21.021Z,98477.38
2023-03-15T03:33:24.440Z,98478.00
2023-03-15T03:38:27.684Z,98478.31
2023-03-15T03:43:35.201Z,98490.25
2023-03-15T03:48:38.321Z,98492.69
2023-03-15T03:53:42.876Z,98498.50
2023-03-15T03:58:48.097Z,98499.63
2023-03-15T04:03:59.566Z,98493.19
2023-03-15T04:09:04.216Z,98501.63
2023-03-15T04:14:16.455Z,98511.00
2023-03-15T04:19:21.814Z,98522.00
2023-03-15T04:24:24.849Z,98524.56
2023-03-15T04:29:49.458Z,98546.19
2023-03-15T04:35:07.146Z,98544.59
2023-03-15T04:40:35.155Z,98553.16
2023-03-15T04:46:01.897Z,98568.44
2023-03-15T04:51:18.710Z,98586.53
2023-03-15T04:56:29.419Z,98583.31
2023-03-15T05:01:54.011Z,98599.63
2023-03-15T05:06:56.917Z,98603.34
2023-03-15T05:12:26.206Z,98609.63
2023-03-15T05:17:59.833Z,98617.22
2023-03-15T05:23:14.747Z,98618.19
2023-03-15T05:28:25.251Z,98629.31
2023-03-15T05:33:47.966Z,98637.53
2023-03-15T05:39:09.980Z,98650.31
2023-03-15T05:44:34.037Z,98658.53
2023-03-15T05:49:41.280Z,98663.53
2023-03-15T05:55:02.878Z,98679.69
2023-03-15T06:00:22.266Z,98691.00
2023-03-15T06:05:32.945Z,98693.78
2023-03-15T06:10:39.350Z,98702.72
2023-03-15T06:15:44.783Z,98709.94
2023-03-15T06:20:49.321Z,98721.25
2023-03-15T06:25:54.117Z,98715.78
2023-03-15T06:30:59.269Z,98723.38
2023-03-15T06:36:14.269Z,98729.91
2023-03-15T06:41:17.563Z,98724.66
2023-03-15T06:46:20.658Z,98729.81
2023-03-15T06:51:25.029Z,98752.38
2023-03-15T06:56:28.491Z,98752.97
2023-03-15T07:01:31.473Z,98754.34
2023-03-15T07:06:36.862Z,98756.28
2023-03-15T07:11:39.746Z,98765.88
2023-03-15T07:16:42.664Z,98763.03
2023-03-15T07:21:47.073Z,98755.09
2023-03-15T07:26:54.721Z,98763.81
2023-03-15T07:31:57.661Z,98761.50
2023-03-15T07:37:01.948Z,98770.16
2023-03-15T07:42:07.266Z,98766.75
2023-03-15T07:47:16.513Z,98769.69
2023-03-15T07:52:21.412Z,98772.19
2023-03-15T07:57:24.588Z,98765.06
2023-03-15T08:02:30.205Z,98765.28
2023-03-15T08:07:35.557Z,98771.78
2023-03-15T08:12:40.320Z,98782.94
2023-03-15T08:17:43.595Z,98779.16
2023-03-15T08:22:48.972Z,98794.50
2023-03-15T08:27:52.674Z,98789.94
2023-03-15T08:32:55.701Z,98816.22
2023-03-15T08:37:59.975Z,98810.16
2023-03-15T08:43:02.915Z,98819.06
2023-03-15T08:48:06.043Z,98819.16
2023-03-15T08:53:10.998Z,98831.00
2023-03-15T08:58:14.375Z,98850.25
2023-03-15T09:03:17.320Z,98868.50
2023-03-15T09:08:21.580Z,98867.00
2023-03-15T09:13:25.187Z,98858.53
2023-03-15T09:18:28.482Z,98856.50
2023-03-15T09:23:32.827Z,98858.25
2023-03-15T09:28:35.774Z,98865.44
2023-03-15T09:33:38.734Z,98863.06
2023-03-15T09:38:43.859Z,98867.53
2023-03-15T09:44:02.223Z,98869.38
2023-03-15T09:49:14.297Z,98876.94
2023-03-15T09:54:24.217Z,98886.13
2023-03-15T09:59:33.672Z,98884.13
2023-03-15T10:04:40.624Z,98889.63
2023-03-15T10:09:45.015Z,98883.69
2023-03-15T10:15:17.569Z,98896.38
2023-03-15T10:20:24.291Z,98903.88
2023-03-15T10:25:30.753Z,98905.28
2023-03-15T10:30:35.823Z,98911.53
2023-03-15T10:35:39.378Z,98918.88
2023-03-15T10:40:47.231Z,98918.72
2023-03-15T10:46:01.018Z,98925.63
2023-03-15T10:51:07.410Z,98921.47
2023-03-15T10:56:22.279Z,98926.75
2023-03-15T11:01:29.002Z,98929.31
2023-03-15T11:06:42.155Z,98922.03
2023-03-15T11:12:01.996Z,98921.13
2023-03-15T11:17:07.206Z,98928.78
2023-03-15T11:22:15.019Z,98930.06
2023-03-15T11:27:22.750Z,98942.25
2023-03-15T11:32:28.512Z,98948.44
2023-03-15T11:37:39.306Z,98940.97
2023-03-15T11:42:50.532Z,98937.97
2023-03-15T11:47:57.235Z,98938.00
2023-03-15T11:53:03.902Z,98935.78
2023-03-15T11:58:30.061Z,98930.19
2023-03-15T12:03:40.086Z,98931.38
2023-03-15T12:08:46.833Z,98926.72
2023-03-15T12:14:06.686Z,98925.91
2023-03-15T12:19:15.287Z,98920.22
2023-03-15T12:24:23.658Z,98922.13
2023-03-15T12:29:30.211Z,98930.91
2023-03-15T12:34:54.951Z,98921.34
2023-03-15T12:40:02.660Z,98927.75
2023-03-15T12:45:39.033Z,98934.78
2023-03-15T12:50:52.825Z,98932.81
2023-03-15T12:56:02.869Z,98943.25
2023-03-15T13:01:16.329Z,98937.31
2023-03-15T13:06:31.301Z,98942.41
2023-03-15T13:11:41.260Z,98940.22
2023-03-15T13:16:51.119Z,98936.31
2023-03-15T13:22:04.872Z,98940.75
2023-03-15T13:27:13.193Z,98948.81
2023-03-15T13:32:20.268Z,98941.34
2023-03-15T13:37:26.708Z,98945.88
2023-03-15T13:42:29.720Z,98945.88
2023-03-15T13:47:35.855Z,98951.03
2023-03-15T13:52:38.977Z,98952.50
2023-03-15T13:57:42.342Z,98960.44
2023-03-15T14:02:49.616Z,98958.69
2023-03-15T14:07:59.262Z,98961.56
2023-03-15T14:13:22.385Z,98966.63
2023-03-15T14:18:31.878Z,98970.94
2023-03-15T14:23:39.837Z,98971.09
2023-03-15T14:28:43.753Z,98972.09
2023-03-15T14:33:54.359Z,98971.72
2023-03-15T14:39:00.170Z,98990.25
2023-03-15T14:44:04.119Z,98983.50
2023-03-15T14:49:11.177Z,98978.88
2023-03-15T14:54:14.319Z,98984.81
2023-03-15T14:59:18.085Z,98985.00
2023-03-15T15:04:23.062Z,98977.53
2023-03-15T15:09:28.205Z,98990.19
2023-03-15T15:14:31.740Z,98985.50
2023-03-15T15:19:36.056Z,98987.91
2023-03-15T15:24:39.033Z,98990.44
2023-03-15T15:29:41.986Z,98999.06
2023-03-15T15:34:46.348Z,98999.38
2023-03-15T15:39:49.311Z,99008.44
2023-03-15T15:44:53.111Z,99020.88
2023-03-15T15:49:57.429Z,99027.00
2023-03-15T15:55:02.249Z,99028.84
2023-03-15T16:00:06.602Z,99035.38
2023-03-15T16:05:32.990Z,99038.22
2023-03-15T16:10:36.193Z,99043.66
2023-03-15T16:15:39.256Z,99049.19
2023-03-15T16:20:44.068Z,99062.03
2023-03-15T16:25:49.144Z,99077.91
2023-03-15T16:30:52.231Z,99070.63
2023-03-15T16:35:56.593Z,99078.44
2023-03-15T16:41:01.365Z,99080.47
2023-03-15T16:46:13.432Z,99090.69
2023-03-15T16:51:18.138Z,99094.59
2023-03-15T16:56:21.071Z,99108.19
2023-03-15T17:01:25.844Z,99124.16
2023-03-15T17:06:31.427Z,99133.59
2023-03-15T17:11:34.385Z,99138.16
2023-03-15T17:16:37.354Z,99138.63
2023-03-15T17:21:43.460Z,99156.38
2023-03-15T17:26:46.968Z,99159.66
2023-03-15T17:31:49.923Z,99173.28
2023-03-15T17:36:56.018Z,99168.09
2023-03-15T17:42:00.198Z,99183.53
2023-03-15T17:47:05.947Z,99193.38
2023-03-15T17:52:15.222Z,99210.31
2023-03-15T17:57:18.163Z,99218.38
2023-03-15T18:02:21.787Z,99224.88
2023-03-15T18:07:28.799Z,99230.25
2023-03-15T18:12:31.762Z,99239.16
2023-03-15T18:17:34.858Z,99244.63
2023-03-15T18:22:40.874Z,99255.31
2023-03-15T18:27:43.819Z,99265.22
2023-03-15T18:32:47.118Z,99252.81
2023-03-15T18:37:51.617Z,99258.19
2023-03-15T18:42:55.068Z,99256.47
2023-03-15T18:47:59.846Z,99258.25
2023-03-15T18:53:06.150Z,99266.44
2023-03-15T18:58:12.934Z,99268.19
2023-03-15T19:03:15.917Z,99273.88
2023-03-15T19:08:20.317Z,99274.78
2023-03-15T19:13:23.418Z,99276.91
2023-03-15T19:18:26.686Z,99283.81
2023-03-15T19:23:32.157Z,99296.47
2023-03-15T19:28:35.252Z,99304.59
2023-03-15T19:33:38.547Z,99298.19
2023-03-15T19:38:42.806Z,99308.03
2023-03-15T19:43:46.195Z,99319.41
2023-03-15T19:48:49.355Z,99322.31
2023-03-15T19:53:53.769Z,99334.94
2023-03-15T19:58:57.228Z,99333.59
2023-03-15T20:04:00.777Z,99342.91
2023-03-15T20:09:06.024Z,99352.19
2023-03-15T20:14:09.237Z,99355.00
2023-03-15T20:19:12.144Z,99361.22
2023-03-15T20:24:16.452Z,99358.81
2023-03-15T20:29:19.514Z,99359.16
2023-03-15T20:34:23.036Z,99367.69
2023-03-15T20:39:27.335Z,99376.41
2023-03-15T20:44:30.412Z,99384.69
2023-03-15T20:49:33.313Z,99398.91
2023-03-15T20:54:38.039Z,99403.72
2023-03-15T20:59:40.892Z,99401.94
2023-03-15T21:04:44.542Z,99411.59
2023-03-15T21:09:48.853Z,99415.47
2023-03-15T21:14:51.911Z,99420.09
2023-03-15T21:19:54.851Z,99420.38
2023-03-15T21:24:59.110Z,99425.56
2023-03-15T21:30:02.460Z,99430.22
2023-03-15T21:35:05.971Z,99433.22
2023-03-15T21:40:11.790Z,99431.88
2023-03-15T21:45:14.870Z,99436.09
2023-03-15T21:50:17.880Z,99439.75
2023-03-15T21:55:22.724Z,99433.22
2023-03-15T22:00:26.474Z,99446.44
2023-03-15T22:05:29.584Z,99448.88
2023-03-15T22:10:33.876Z,99454.19
2023-03-15T22:15:36.813Z,99463.00
2023-03-15T22:20:39.838Z,99459.63
2023-03-15T22:25:44.100Z,99454.19
2023-03-15T22:30:48.984Z,99454.44
2023-03-15T22:35:56.729Z,99468.81
2023-03-15T22:41:06.631Z,99462.44
2023-03-15T22:46:10.052Z,99477.81
2023-03-15T22:51:16.066Z,99475.47
2023-03-15T22:56:20.501Z,99484.44
2023-03-15T23:01:23.483Z,99489.34
2023-03-15T23:06:26.511Z,99483.34
2023-03-15T23:11:30.767Z,99491.38
2023-03-15T23:16:34.032Z,99499.97
2023-03-15T23:21:37.186Z,99489.75
2023-03-15T23:26:41.872Z,99498.72
2023-03-15T23:31:44.798Z,99500.34
2023-03-15T23:36:47.702Z,99505.22
2023-03-15T23:41:51.969Z,99502.41
2023-03-15T23:46:55.019Z,99501.84
2023-03-15T23:51:57.927Z,99506.31
2023-03-15T23:57:02.206Z,99516.38
